createdAt,value
2023-11-25T00:00:50.350Z,5.17
2023-11-25T00:03:17.038Z,5.17
2023-11-25T00:05:44.031Z,5.20
2023-11-25T00:08:11.680Z,5.10
2023-11-25T00:10:38.676Z,5.15
2023-11-25T00:13:05.381Z,5.08
2023-11-25T00:15:31.947Z,5.12
2023-11-25T00:17:59.096Z,5.18
2023-11-25T00:20:26.663Z,5.14
2023-11-25T00:22:53.878Z,5.08
2023-11-25T00:25:21.102Z,5.21
2023-11-25T00:27:48.053Z,5.15
2023-11-25T00:30:15.600Z,5.22
2023-11-25T00:32:42.851Z,5.31
2023-11-25T00:35:10.172Z,5.24
2023-11-25T00:37:37.961Z,5.27
2023-11-25T00:40:06.139Z,5.20
2023-11-25T00:42:32.849Z,5.17
2023-11-25T00:44:59.781Z,5.17
2023-11-25T00:47:28.736Z,5.08
2023-11-25T00:49:56.612Z,5.14
2023-11-25T00:52:23.461Z,5.27
2023-11-25T00:54:50.080Z,5.34
2023-11-25T00:57:17.329Z,5.29
2023-11-25T00:59:44.369Z,5.29
2023-11-25T01:02:10.999Z,5.32
2023-11-25T01:04:41.304Z,5.25
2023-11-25T01:07:08.619Z,5.17
2023-11-25T01:09:35.646Z,5.12
2023-11-25T01:12:02.268Z,5.04
2023-11-25T01:14:28.839Z,5.02
2023-11-25T01:16:55.540Z,4.98
2023-11-25T01:19:22.265Z,5.02
2023-11-25T01:21:49.557Z,5.00
2023-11-25T01:24:16.137Z,4.92
2023-11-25T01:26:43.274Z,5.00
2023-11-25T01:29:10.686Z,5.02
2023-11-25T01:31:37.365Z,5.01
2023-11-25T01:34:04.118Z,5.02
2023-11-25T01:36:30.697Z,4.97
2023-11-25T01:38:57.305Z,4.88
2023-11-25T01:41:24.424Z,4.77
2023-11-25T01:43:51.616Z,4.80
2023-11-25T01:46:45.504Z,4.74
2023-11-25T01:49:16.801Z,4.69
2023-11-25T01:51:46.908Z,4.71
2023-11-25T01:54:17.885Z,4.62
2023-11-25T01:56:47.292Z,4.53
2023-11-25T01:59:16.830Z,4.49
2023-11-25T06:32:34.456Z,4.97
2023-11-25T06:35:02.130Z,5.11
2023-11-25T06:37:28.951Z,5.15
2023-11-25T06:39:55.726Z,5.21
2023-11-25T06:42:23.611Z,5.28
2023-11-25T06:44:52.448Z,5.31
2023-11-25T06:47:20.844Z,5.22
2023-11-25T06:49:49.495Z,5.20
2023-11-25T06:52:21.551Z,5.20
2023-11-25T06:54:48.234Z,5.12
2023-11-25T06:57:17.382Z,5.12
2023-11-25T06:59:46.169Z,5.21
2023-11-25T07:02:14.157Z,5.14
2023-11-25T07:04:41.073Z,5.11
2023-11-25T07:07:08.473Z,5.10
2023-11-25T07:09:35.099Z,5.21
2023-11-25T07:12:01.889Z,5.34
2023-11-25T07:14:29.569Z,5.29
2023-11-25T07:16:57.231Z,5.29
2023-11-25T07:19:23.882Z,5.36
2023-11-25T07:21:51.907Z,5.38
2023-11-25T07:24:18.842Z,5.43
2023-11-25T07:26:52.656Z,5.45
2023-11-25T07:29:20.537Z,5.42
2023-11-25T07:31:48.210Z,5.43
2023-11-25T07:34:15.180Z,5.42
2023-11-25T07:36:44.009Z,5.42
2023-11-25T07:39:10.704Z,5.41
2023-11-25T07:41:37.363Z,5.49
2023-11-25T07:44:04.280Z,5.52
2023-11-25T07:46:31.097Z,5.52
2023-11-25T07:48:57.792Z,5.58
2023-11-25T07:51:26.931Z,5.52
2023-11-25T07:53:53.987Z,5.59
2023-11-25T07:56:21.257Z,5.66
2023-11-25T07:58:47.981Z,5.69
2023-11-25T08:01:14.551Z,5.73
2023-11-25T08:03:41.246Z,5.65
2023-11-25T08:06:08.102Z,5.60
2023-11-25T08:08:34.850Z,5.59
2023-11-25T08:11:01.447Z,5.62
2023-11-25T08:13:28.265Z,5.76
2023-11-25T08:15:56.536Z,5.98
2023-11-25T08:18:23.328Z,6.16
2023-11-25T08:20:50.029Z,6.24
2023-11-25T08:23:17.025Z,6.34
2023-11-25T08:25:44.054Z,6.21
2023-11-25T08:28:10.676Z,6.22
2023-11-25T08:30:41.229Z,6.21
2023-11-25T08:33:07.935Z,6.20
2023-11-25T08:35:34.660Z,6.16
2023-11-25T08:38:01.236Z,6.21
2023-11-25T08:40:28.763Z,6.48
2023-11-25T08:42:57.469Z,6.41
2023-11-25T08:45:25.580Z,6.28
2023-11-25T08:47:52.351Z,6.34
2023-11-25T08:50:20.500Z,6.27
2023-11-25T08:52:49.930Z,6.31
2023-11-25T08:55:19.768Z,6.38
2023-11-25T08:57:47.240Z,6.96
2023-11-25T09:00:23.349Z,7.97
2023-11-25T09:02:55.599Z,8.57
2023-11-25T09:05:24.025Z,8.93
2023-11-25T09:07:56.609Z,9.50
2023-11-25T09:10:24.433Z,8.85
2023-11-25T09:12:53.525Z,9.24
2023-11-25T09:15:21.364Z,8.72
2023-11-25T09:17:48.049Z,7.71
2023-11-25T09:20:17.769Z,7.11
2023-11-25T09:22:44.992Z,6.86
2023-11-25T09:25:13.154Z,6.83
2023-11-25T09:27:43.061Z,6.87
2023-11-25T09:30:12.433Z,6.89
2023-11-25T09:32:43.356Z,6.96
2023-11-25T09:35:13.391Z,6.85
2023-11-25T09:37:40.855Z,6.86
2023-11-25T09:40:15.146Z,7.27
2023-11-25T09:42:46.280Z,8.73
2023-11-25T09:45:13.843Z,9.36
2023-11-25T09:47:44.549Z,9.73
2023-11-25T09:50:12.008Z,9.77
2023-11-25T09:52:49.904Z,10.32
2023-11-25T09:55:18.764Z,11.05
2023-11-25T09:57:54.459Z,11.15
2023-11-25T10:00:22.828Z,11.03
2023-11-25T10:02:55.491Z,11.04
2023-11-25T10:05:23.221Z,11.18
2023-11-25T10:07:50.013Z,11.25
2023-11-25T10:10:24.794Z,11.26
2023-11-25T10:12:52.056Z,10.12
2023-11-25T10:15:19.104Z,9.94
2023-11-25T10:17:45.932Z,9.64
2023-11-25T10:20:20.554Z,8.76
2023-11-25T10:22:49.254Z,8.16
2023-11-25T10:25:19.841Z,7.62
2023-11-25T10:27:47.823Z,7.68
2023-11-25T10:30:16.073Z,7.50
2023-11-25T10:32:43.663Z,7.32
2023-11-25T10:35:10.959Z,7.21
2023-11-25T10:37:41.265Z,7.16
2023-11-25T10:40:12.085Z,7.23
2023-11-25T10:42:46.748Z,7.54
2023-11-25T10:45:17.513Z,8.03
2023-11-25T10:47:44.884Z,8.09
2023-11-25T10:50:12.490Z,8.09
2023-11-25T10:52:44.197Z,7.87
2023-11-25T10:55:11.056Z,7.90
2023-11-25T10:57:38.621Z,8.36
2023-11-25T11:00:12.189Z,8.78
2023-11-25T11:02:55.491Z,9.41
2023-11-25T11:05:35.541Z,9.94
2023-11-25T11:08:07.363Z,9.40
2023-11-25T11:11:01.410Z,8.61
2023-11-25T11:13:34.717Z,9.54
2023-11-25T11:16:08.466Z,10.29
2023-11-25T11:18:37.846Z,10.74
2023-11-25T11:21:07.552Z,10.42
2023-11-25T11:23:38.588Z,10.50
2023-11-25T11:26:19.429Z,10.64
2023-11-25T11:29:20.322Z,9.55
2023-11-25T11:31:59.041Z,9.05
2023-11-25T11:34:33.248Z,8.67
2023-11-25T11:37:01.291Z,8.45
2023-11-25T11:39:52.377Z,8.40
2023-11-25T11:42:28.112Z,8.55
2023-11-25T11:45:13.152Z,8.71
2023-11-25T11:47:45.631Z,8.92
2023-11-25T11:50:17.442Z,9.08
2023-11-25T11:52:48.817Z,9.39
2023-11-25T11:55:41.197Z,10.59
2023-11-25T11:58:13.004Z,10.87
2023-11-25T12:01:03.067Z,11.79
2023-11-25T12:03:31.471Z,11.79
2023-11-25T12:05:58.239Z,10.67
2023-11-25T12:08:25.850Z,10.09
2023-11-25T12:10:53.551Z,10.30
2023-11-25T12:13:30.310Z,11.12
2023-11-25T12:16:01.819Z,10.55
2023-11-25T12:18:33.275Z,9.91
2023-11-25T12:21:02.549Z,9.39
2023-11-25T12:23:41.134Z,9.98
2023-11-25T12:26:21.369Z,9.60
2023-11-25T12:28:47.955Z,9.26
2023-11-25T12:31:14.622Z,9.09
2023-11-25T12:33:41.276Z,9.82
2023-11-25T12:36:08.915Z,10.47
2023-11-25T12:38:38.271Z,10.83
2023-11-25T12:41:12.638Z,9.68
2023-11-25T12:44:11.817Z,9.26
2023-11-25T12:46:39.778Z,10.50
2023-11-25T12:49:25.993Z,11.03
2023-11-25T12:51:54.098Z,12.22
2023-11-25T12:54:21.394Z,11.45
2023-11-25T12:56:53.197Z,9.99
2023-11-25T12:59:31.455Z,8.83
2023-11-25T13:02:09.555Z,8.51
2023-11-25T13:04:43.558Z,8.30
2023-11-25T13:07:10.409Z,8.09
2023-11-25T13:09:40.515Z,7.97
2023-11-25T13:12:07.917Z,7.82
2023-11-25T13:14:35.221Z,7.68
2023-11-25T13:17:02.906Z,7.65
2023-11-25T13:19:29.620Z,7.79
2023-11-25T13:21:56.177Z,7.78
2023-11-25T13:24:23.658Z,7.83
2023-11-25T13:26:50.462Z,7.76
2023-11-25T13:29:17.337Z,7.79
2023-11-25T13:31:44.689Z,7.75
2023-11-25T13:34:13.478Z,7.55
2023-11-25T13:36:41.596Z,7.50
2023-11-25T13:39:08.388Z,7.51
2023-11-25T13:41:35.044Z,7.47
2023-11-25T13:44:01.737Z,7.41
2023-11-25T13:46:28.398Z,7.48
2023-11-25T13:48:55.470Z,7.52
2023-11-25T13:51:22.868Z,7.54
2023-11-25T13:53:49.598Z,7.61
2023-11-25T13:56:16.224Z,7.58
2023-11-25T13:58:42.855Z,7.51
2023-11-25T14:01:09.999Z,7.47
2023-11-25T14:03:37.242Z,7.40
2023-11-25T14:06:04.467Z,7.38
2023-11-25T14:08:31.029Z,7.47
2023-11-25T14:10:57.720Z,7.51
2023-11-25T14:13:24.881Z,7.62
2023-11-25T14:15:51.720Z,7.66
2023-11-25T14:18:18.442Z,7.74
2023-11-25T14:20:45.187Z,7.65
2023-11-25T14:23:12.052Z,7.64
2023-11-25T14:25:39.005Z,7.54
2023-11-25T14:28:06.463Z,7.37
2023-11-25T14:30:34.802Z,7.37
2023-11-25T14:33:04.818Z,7.37
2023-11-25T14:35:35.480Z,7.52
2023-11-25T14:38:05.064Z,7.56
2023-11-25T14:40:35.293Z,7.58
2023-11-25T14:43:02.139Z,7.58
2023-11-25T14:45:28.910Z,7.44
2023-11-25T14:47:55.822Z,7.54
2023-11-25T14:50:22.531Z,7.47
2023-11-25T14:52:49.306Z,7.50
2023-11-25T14:55:15.990Z,7.41
2023-11-25T14:57:43.977Z,7.40
2023-11-25T15:00:12.186Z,7.28
2023-11-25T15:02:38.973Z,7.30
2023-11-25T15:05:06.139Z,7.27
2023-11-25T15:07:33.475Z,7.16
2023-11-25T15:10:00.234Z,7.11
2023-11-25T15:12:26.831Z,7.00
2023-11-25T15:14:55.731Z,6.97
2023-11-25T15:17:24.033Z,7.03
2023-11-25T15:19:50.849Z,7.06
2023-11-25T15:22:17.538Z,7.07
2023-11-25T15:24:44.234Z,7.11
2023-11-25T15:27:13.425Z,7.08
2023-11-25T15:29:40.119Z,7.01
2023-11-25T15:32:07.611Z,7.04
2023-11-25T15:34:34.787Z,7.07
2023-11-25T15:37:01.368Z,7.06
2023-11-25T15:39:28.561Z,7.11
2023-11-25T15:41:55.430Z,7.13
2023-11-25T15:44:22.261Z,7.14
2023-11-25T15:46:49.231Z,7.13
2023-11-25T15:49:17.017Z,7.13
2023-11-25T15:51:45.289Z,7.08
2023-11-25T15:54:12.300Z,7.08
2023-11-25T15:56:39.495Z,7.10
2023-11-25T15:59:07.775Z,7.13
2023-11-25T16:01:34.920Z,7.14
2023-11-25T16:06:28.781Z,7.20
2023-11-25T16:08:55.455Z,7.20
2023-11-25T16:11:23.170Z,7.23
2023-11-25T16:13:49.959Z,7.18
2023-11-25T16:16:16.679Z,7.11
2023-11-25T16:18:43.682Z,7.10
2023-11-25T16:21:10.430Z,7.13
2023-11-25T16:23:40.147Z,7.10
2023-11-25T16:26:11.517Z,7.14
2023-11-25T16:28:38.226Z,7.17
2023-11-25T16:31:07.279Z,7.14
2023-11-25T16:33:37.432Z,7.16
2023-11-25T16:36:04.253Z,7.14
2023-11-25T16:38:33.673Z,7.17
2023-11-25T16:41:00.453Z,7.11
2023-11-25T16:43:27.102Z,7.03
2023-11-25T16:45:53.744Z,6.90
2023-11-25T16:48:25.277Z,6.87
2023-11-25T16:50:53.940Z,6.80
2023-11-25T16:53:20.674Z,6.79
2023-11-25T16:55:47.408Z,6.69
2023-11-25T16:58:14.145Z,6.62
2023-11-25T17:00:40.688Z,6.56
2023-11-25T17:03:07.836Z,6.53
2023-11-25T17:05:34.557Z,6.44
2023-11-25T17:08:01.255Z,6.45
2023-11-25T17:10:31.774Z,6.38
2023-11-25T17:13:02.663Z,6.38
2023-11-25T17:15:29.256Z,6.42
2023-11-25T17:17:55.944Z,6.42
2023-11-25T17:20:22.808Z,6.48
2023-11-25T17:22:50.260Z,6.44
2023-11-25T17:25:17.019Z,6.46
2023-11-25T17:27:43.620Z,6.35
2023-11-25T17:30:10.408Z,6.35
2023-11-25T17:32:37.102Z,6.34
2023-11-25T17:35:05.180Z,6.27
2023-11-25T17:37:31.859Z,6.21
2023-11-25T17:39:59.422Z,6.27
2023-11-25T17:42:25.969Z,6.32
2023-11-25T17:44:52.488Z,6.31
2023-11-25T17:47:19.194Z,6.31
2023-11-25T17:49:47.510Z,6.28
2023-11-25T17:52:14.860Z,6.20
2023-11-25T17:54:41.527Z,6.17
2023-11-25T17:57:09.808Z,6.11
2023-11-25T17:59:36.628Z,6.16
2023-11-25T18:02:03.525Z,6.16
2023-11-25T18:04:30.143Z,6.13
2023-11-25T18:06:56.772Z,6.11
2023-11-25T18:09:25.158Z,6.13
2023-11-25T18:11:51.797Z,6.14
2023-11-25T18:14:18.654Z,6.08
2023-11-25T18:16:46.524Z,6.10
2023-11-25T18:19:15.239Z,6.17
2023-11-25T18:21:42.013Z,6.22
2023-11-25T18:24:10.892Z,6.24
2023-11-25T18:26:37.659Z,6.22
2023-11-25T18:29:04.340Z,6.22
2023-11-25T18:31:30.942Z,6.24
2023-11-25T18:33:58.236Z,6.21
2023-11-25T18:36:25.083Z,6.25
2023-11-25T18:38:51.680Z,6.17
2023-11-25T18:41:18.572Z,6.11
2023-11-25T18:43:45.622Z,6.10
2023-11-25T18:46:13.407Z,6.08
2023-11-25T18:48:40.148Z,6.10
2023-11-25T18:51:08.543Z,6.07
2023-11-25T18:53:36.385Z,6.03
2023-11-25T18:56:03.239Z,6.01
2023-11-25T18:58:32.826Z,5.96
2023-11-25T19:01:00.139Z,5.94
2023-11-25T19:03:26.864Z,5.94
2023-11-25T19:05:53.608Z,5.91
2023-11-25T19:08:20.262Z,5.90
2023-11-25T19:10:46.911Z,5.85
2023-11-25T19:13:13.548Z,5.90
2023-11-25T19:15:40.117Z,5.89
2023-11-25T19:18:09.938Z,5.86
2023-11-25T19:20:36.629Z,5.83
2023-11-25T19:23:03.280Z,5.83
2023-11-25T19:25:29.938Z,5.80
2023-11-25T19:27:56.539Z,5.73
2023-11-25T19:30:23.673Z,5.71
2023-11-25T19:32:50.414Z,5.71
2023-11-25T19:35:17.474Z,5.62
2023-11-25T19:37:44.196Z,5.63
2023-11-25T19:40:11.907Z,5.65
2023-11-25T19:42:38.504Z,5.60
2023-11-25T19:45:05.563Z,5.77
2023-11-25T19:47:32.175Z,5.86
2023-11-25T19:49:59.013Z,5.90
2023-11-25T19:52:25.668Z,5.96
2023-11-25T19:54:52.337Z,6.03
2023-11-25T19:57:19.308Z,6.07
2023-11-25T19:59:46.459Z,6.08
2023-11-25T20:02:13.195Z,6.10
2023-11-25T20:04:40.314Z,6.08
2023-11-25T20:07:07.027Z,6.03
2023-11-25T20:09:33.571Z,6.08
2023-11-25T20:12:00.529Z,6.08
2023-11-25T20:14:28.713Z,6.01
2023-11-25T20:16:58.193Z,6.07
2023-11-25T20:19:26.167Z,6.10
2023-11-25T20:21:52.768Z,6.13
2023-11-25T20:24:19.373Z,6.08
2023-11-25T20:26:45.967Z,6.00
2023-11-25T20:29:12.594Z,5.96
2023-11-25T20:31:41.086Z,5.89
2023-11-25T20:34:08.195Z,5.91
2023-11-25T20:36:34.946Z,5.81
2023-11-25T20:39:01.658Z,5.79
2023-11-25T20:41:28.247Z,5.77
2023-11-25T20:43:54.977Z,5.73
2023-11-25T20:46:21.892Z,5.67
2023-11-25T20:48:48.776Z,5.62
2023-11-25T20:51:20.892Z,5.56
2023-11-25T20:53:48.551Z,5.62
2023-11-25T20:56:16.470Z,5.59
2023-11-25T20:58:43.479Z,5.52
2023-11-25T21:01:11.314Z,5.49
2023-11-25T21:03:38.111Z,5.45
2023-11-25T21:06:06.594Z,5.43
2023-11-25T21:08:34.278Z,5.45
2023-11-25T21:11:01.176Z,5.46
2023-11-25T21:13:27.835Z,5.45
2023-11-25T21:15:54.584Z,5.35
2023-11-25T21:18:22.372Z,5.28
2023-11-25T21:20:48.958Z,5.32
2023-11-25T21:23:15.630Z,5.29
2023-11-25T21:25:42.293Z,5.21
2023-11-25T21:28:09.616Z,5.24
2023-11-25T21:30:36.423Z,5.24
2023-11-25T21:33:03.236Z,5.14
2023-11-25T21:35:29.879Z,5.21
2023-11-25T21:37:56.492Z,5.07
2023-11-25T21:40:24.065Z,5.01
2023-11-25T21:42:51.390Z,4.95
2023-11-25T21:45:19.343Z,4.94
2023-11-25T21:47:47.001Z,4.85
2023-11-25T21:50:13.982Z,4.81
2023-11-25T21:52:40.582Z,4.81
2023-11-25T21:55:07.734Z,4.79
2023-11-25T21:57:35.218Z,4.84
2023-11-25T22:00:02.241Z,4.80
2023-11-25T22:02:29.132Z,4.85
2023-11-25T22:04:56.010Z,4.79
2023-11-25T22:07:23.087Z,4.76
2023-11-25T22:09:52.476Z,4.73
2023-11-25T22:12:19.329Z,4.74
2023-11-25T22:14:45.900Z,4.79
2023-11-25T22:17:12.625Z,4.77
2023-11-25T22:19:39.391Z,4.74
2023-11-25T22:22:07.328Z,4.67
2023-11-25T22:24:33.982Z,4.70
2023-11-25T22:27:20.568Z,4.69
2023-11-25T22:29:47.133Z,4.64
2023-11-25T22:32:14.158Z,4.63
2023-11-25T22:34:41.755Z,4.63
2023-11-25T22:37:08.529Z,4.64
2023-11-25T22:39:36.769Z,4.62
2023-11-25T22:42:03.967Z,4.66
2023-11-25T22:44:30.532Z,4.67
2023-11-25T22:46:57.487Z,4.67
2023-11-25T22:49:24.099Z,4.60
2023-11-25T22:51:50.705Z,4.59
2023-11-25T22:54:18.549Z,4.60
2023-11-25T22:56:45.192Z,4.67
2023-11-25T22:59:14.355Z,4.70
2023-11-25T23:01:42.297Z,4.79
2023-11-25T23:04:09.067Z,4.77
2023-11-25T23:06:41.746Z,4.71
2023-11-25T23:09:08.434Z,4.81
2023-11-25T23:11:35.785Z,4.81
2023-11-25T23:14:04.911Z,4.79
2023-11-25T23:16:31.787Z,4.76
2023-11-25T23:19:00.123Z,4.74
2023-11-25T23:21:28.084Z,4.73
2023-11-25T23:23:55.546Z,4.76
2023-11-25T23:26:22.490Z,4.77
2023-11-25T23:28:49.702Z,4.76
2023-11-25T23:31:16.468Z,4.90
2023-11-25T23:33:43.045Z,4.87
2023-11-25T23:36:10.681Z,4.92
2023-11-25T23:38:38.339Z,4.90
2023-11-25T23:41:05.149Z,4.87
2023-11-25T23:43:31.705Z,4.92
2023-11-25T23:45:58.571Z,4.84
2023-11-25T23:48:25.183Z,4.81
2023-11-25T23:50:52.218Z,4.79
2023-11-25T23:53:18.872Z,4.77
2023-11-25T23:55:45.554Z,4.77
2023-11-25T23:58:12.401Z,4.84
